Latest Weather Observations for Fort Denison

IDN60801

Issued at 9:03 am EST Monday 21 August 2017 (issued every 30 minutes, with the page automatically refreshed every 10 minutes)

About weather observations | Map of weather stations | Latest weather observations for NSW | Other Formats
Station Details ID: 066022 Name: FORT DENISON Lat: -33.86 Lon: 151.23 Height: 5.0 m
Data from the previous 72 hours. | See also: Recent months for locations in New South Wales
Date/Time
EST
Temp
°C
App
Temp
°C
Dew
Point
°C
Rel
Hum
%
Delta-T
°C
Wind Press
QNH
hPa
Press
MSL
hPa
Rain since
9am
mm
Dir  Spd
km/h
Gust
km/h
Spd
kts
Gust
kts
21/09:00am - - - - - W 11 15 6 8 - - -
21/08:30am - - - - - W 13 15 7 8 - - -
21/08:00am - - - - - W 13 17 7 9 - - -
21/07:30am - - - - - WNW 13 19 7 10 - - -
21/07:00am - - - - - W 24 30 13 16 - - -
21/06:30am - - - - - W 15 19 8 10 - - -
21/06:00am - - - - - W 13 17 7 9 - - -
21/05:30am - - - - - W 15 19 8 10 - - -
21/05:00am - - - - - W 15 17 8 9 - - -
21/04:30am - - - - - W 15 17 8 9 - - -
21/04:00am - - - - - WSW 11 15 6 8 - - -
21/03:30am - - - - - W 11 15 6 8 - - -
21/03:00am - - - - - W 13 17 7 9 - - -
21/02:30am - - - - - W 13 15 7 8 - - -
21/02:00am - - - - - WNW 13 17 7 9 - - -
21/01:30am - - - - - WNW 15 19 8 10 - - -
21/01:00am - - - - - W 17 19 9 10 - - -
21/12:30am - - - - - W 20 24 11 13 - - -
21/12:00am - - - - - W 19 22 10 12 - - -
 
Date/Time
EST
Temp
°C
App
Temp
°C
Dew
Point
°C
Rel
Hum
%
Delta-T
°C
Wind Press
QNH
hPa
Press
MSL
hPa
Rain since
9am
mm
Dir  Spd
km/h
Gust
km/h
Spd
kts
Gust
kts
20/11:30pm - - - - - WNW 11 15 6 8 - - -
20/11:00pm - - - - - WNW 11 13 6 7 - - -
20/10:30pm - - - - - W 11 17 6 9 - - -
20/10:00pm - - - - - W 15 17 8 9 - - -
20/09:30pm - - - - - WNW 7 9 4 5 - - -
20/09:00pm - - - - - WNW 13 15 7 8 - - -
20/08:30pm - - - - - WNW 11 15 6 8 - - -
20/08:00pm - - - - - WSW 9 11 5 6 - - -
20/07:30pm - - - - - SW 6 7 3 4 - - -
20/07:00pm - - - - - SSW 6 9 3 5 - - -
20/06:30pm - - - - - S 7 11 4 6 - - -
20/06:00pm - - - - - SSW 11 19 6 10 - - -
20/05:30pm - - - - - SSW 13 24 7 13 - - -
20/05:00pm - - - - - S 17 26 9 14 - - -
20/04:30pm - - - - - S 19 28 10 15 - - -
20/04:00pm - - - - - S 20 32 11 17 - - -
20/03:30pm - - - - - SSW 19 28 10 15 - - -
20/03:00pm - - - - - SSW 22 35 12 19 - - -
20/02:30pm - - - - - SSW 20 32 11 17 - - -
20/02:00pm - - - - - SSW 19 33 10 18 - - -
20/01:30pm - - - - - SSW 24 35 13 19 - - -
20/01:00pm - - - - - SSW 24 35 13 19 - - -
20/12:30pm - - - - - SSW 22 39 12 21 - - -
20/12:00pm - - - - - SSW 22 39 12 21 - - -
20/11:30am - - - - - S 24 41 13 22 - - -
20/11:00am - - - - - SSW 20 33 11 18 - - -
20/10:30am - - - - - SSW 20 35 11 19 - - -
20/10:00am - - - - - WSW 15 24 8 13 - - -
20/09:30am - - - - - W 19 32 10 17 - - -
20/09:00am - - - - - W 24 30 13 16 - - -
20/08:30am - - - - - W 20 26 11 14 - - -
20/08:00am - - - - - W 24 32 13 17 - - -
20/07:30am - - - - - WSW 24 32 13 17 - - -
20/07:00am - - - - - W 26 33 14 18 - - -
20/06:30am - - - - - W 24 30 13 16 - - -
20/06:00am - - - - - W 24 30 13 16 - - -
20/05:30am - - - - - W 28 39 15 21 - - -
20/05:00am - - - - - W 28 35 15 19 - - -
20/04:30am - - - - - W 24 32 13 17 - - -
20/04:00am - - - - - W 22 32 12 17 - - -
20/03:30am - - - - - W 26 33 14 18 - - -
20/03:00am - - - - - W 24 33 13 18 - - -
20/02:30am - - - - - W 22 32 12 17 - - -
20/02:00am - - - - - W 26 35 14 19 - - -
20/01:30am - - - - - W 28 37 15 20 - - -
20/01:00am - - - - - W 24 33 13 18 - - -
20/12:30am - - - - - W 20 32 11 17 - - -
20/12:00am - - - - - WSW 19 33 10 18 - - -
 
Date/Time
EST
Temp
°C
App
Temp
°C
Dew
Point
°C
Rel
Hum
%
Delta-T
°C
Wind Press
QNH
hPa
Press
MSL
hPa
Rain since
9am
mm
Dir  Spd
km/h
Gust
km/h
Spd
kts
Gust
kts
19/11:30pm - - - - - WSW 19 35 10 19 - - -
19/11:00pm - - - - - SW 22 39 12 21 - - -
19/10:30pm - - - - - SW 22 37 12 20 - - -
19/10:00pm - - - - - SSW 22 39 12 21 - - -
19/09:30pm - - - - - SW 19 30 10 16 - - -
19/09:00pm - - - - - SSW 20 37 11 20 - - -
19/08:30pm - - - - - SSW 22 35 12 19 - - -
19/08:01pm - - - - - S 28 57 15 31 - - -
19/08:00pm - - - - - S 28 57 15 31 - - -
19/07:58pm - - - - - S 26 57 14 31 - - -
19/07:54pm - - - - - SSW 22 57 12 31 - - -
19/07:30pm - - - - - SW 26 43 14 23 - - -
19/07:00pm - - - - - S 28 46 15 25 - - -
19/06:30pm - - - - - S 28 48 15 26 - - -
19/06:21pm - - - - - S 28 46 15 25 - - -
19/06:00pm - - - - - S 26 46 14 25 - - -
19/05:30pm - - - - - SSW 28 48 15 26 - - -
19/05:00pm - - - - - SSW 28 52 15 28 - - -
19/04:39pm - - - - - S 28 48 15 26 - - -
19/04:30pm - - - - - SSW 26 44 14 24 - - -
19/04:00pm - - - - - SSW 33 54 18 29 - - -
19/03:30pm - - - - - SSW 32 63 17 34 - - -
19/03:00pm - - - - - SSW 28 48 15 26 - - -
19/02:30pm - - - - - SSW 35 54 19 29 - - -
19/02:01pm - - - - - S 30 48 16 26 - - -
19/02:00pm - - - - - S 32 48 17 26 - - -
19/01:30pm - - - - - S 32 54 17 29 - - -
19/01:02pm - - - - - SSW 28 46 15 25 - - -
19/01:00pm - - - - - SSW 30 44 16 24 - - -
19/12:46pm - - - - - SSW 28 46 15 25 - - -
19/12:30pm - - - - - SSW 28 44 15 24 - - -
19/12:15pm - - - - - SSW 28 46 15 25 - - -
19/12:00pm - - - - - S 30 44 16 24 - - -
19/11:30am - - - - - S 28 41 15 22 - - -
19/11:00am - - - - - S 28 44 15 24 - - -
19/10:30am - - - - - SSW 19 35 10 19 - - -
19/10:04am - - - - - SW 28 46 15 25 - - -
19/10:00am - - - - - SW 32 46 17 25 - - -
19/09:51am - - - - - SW 26 48 14 26 - - -
19/09:30am - - - - - WSW 24 39 13 21 - - -
19/09:09am - - - - - WSW 28 46 15 25 - - -
19/09:00am - - - - - WSW 30 46 16 25 - - -
19/08:30am - - - - - W 32 50 17 27 - - -
19/08:22am - - - - - WSW 30 50 16 27 - - -
19/08:00am - - - - - WSW 28 41 15 22 - - -
19/07:30am - - - - - W 24 37 13 20 - - -
19/07:00am - - - - - WSW 26 37 14 20 - - -
19/06:30am - - - - - W 20 33 11 18 - - -
19/06:00am - - - - - W 19 28 10 15 - - -
19/05:30am - - - - - W 19 28 10 15 - - -
19/05:00am - - - - - W 19 28 10 15 - - -
19/04:30am - - - - - W 24 33 13 18 - - -
19/04:00am - - - - - W 24 33 13 18 - - -
19/03:30am - - - - - WSW 22 32 12 17 - - -
19/03:00am - - - - - W 24 33 13 18 - - -
19/02:30am - - - - - W 26 35 14 19 - - -
19/02:00am - - - - - W 24 32 13 17 - - -
19/01:30am - - - - - WSW 19 28 10 15 - - -
19/01:00am - - - - - WSW 24 41 13 22 - - -
19/12:38am - - - - - WSW 28 46 15 25 - - -
19/12:30am - - - - - W 32 43 17 23 - - -
19/12:01am - - - - - WSW 33 52 18 28 - - -
19/12:00am - - - - - WSW 35 52 19 28 - - -
 
Date/Time
EST
Temp
°C
App
Temp
°C
Dew
Point
°C
Rel
Hum
%
Delta-T
°C
Wind Press
QNH
hPa
Press
MSL
hPa
Rain since
9am
mm
Dir  Spd
km/h
Gust
km/h
Spd
kts
Gust
kts
18/11:38pm - - - - - WSW 28 46 15 25 - - -
18/11:30pm - - - - - WSW 28 54 15 29 - - -
18/11:00pm - - - - - W 37 63 20 34 - - -
18/10:30pm - - - - - W 43 65 23 35 - - -
18/10:00pm - - - - - WSW 41 65 22 35 - - -
18/09:30pm - - - - - W 43 61 23 33 - - -
18/09:07pm - - - - - W 35 56 19 30 - - -
18/09:00pm - - - - - W 33 48 18 26 - - -
18/08:30pm - - - - - W 41 59 22 32 - - -
18/08:04pm - - - - - W 32 50 17 27 - - -
18/08:00pm - - - - - W 32 43 17 23 - - -
18/07:36pm - - - - - W 32 54 17 29 - - -
18/07:30pm - - - - - W 28 39 15 21 - - -
18/07:00pm - - - - - WSW 28 46 15 25 - - -
18/06:42pm - - - - - W 33 52 18 28 - - -
18/06:30pm - - - - - WSW 26 37 14 20 - - -
18/06:00pm - - - - - WSW 26 48 14 26 - - -
18/05:53pm - - - - - WSW 30 48 16 26 - - -
18/05:30pm - - - - - W 35 48 19 26 - - -
18/05:12pm - - - - - W 37 56 20 30 - - -
18/05:00pm - - - - - W 39 56 21 30 - - -
18/04:30pm - - - - - W 43 70 23 38 - - -
18/04:00pm - - - - - W 43 78 23 42 - - -
18/03:30pm - - - - - W 48 74 26 40 - - -
18/03:00pm - - - - - W 61 87 33 47 - - -
18/02:30pm - - - - - W 59 82 32 44 - - -
18/02:00pm - - - - - W 54 78 29 42 - - -
18/01:30pm - - - - - W 54 83 29 45 - - -
18/01:00pm - - - - - W 46 72 25 39 - - -
18/12:30pm - - - - - W 57 80 31 43 - - -
18/12:00pm - - - - - W 54 78 29 42 - - -
18/11:30am - - - - - W 54 72 29 39 - - -
18/11:00am - - - - - W 46 67 25 36 - - -
18/10:33am - - - - - WNW 39 59 21 32 - - -
18/10:30am - - - - - W 39 54 21 29 - - -
18/10:00am - - - - - WNW 43 61 23 33 - - -
18/09:58am - - - - - WNW 43 61 23 33 - - -
18/09:30am - - - - - W 43 59 23 32 - - -

Other Formats:

Comma delimited format used in spreadsheet applications
http://www.bom.gov.au/fwo/IDN60801/IDN60801.94769.axf

JavaScript Object Notation format (JSON) in row-major order
http://www.bom.gov.au/fwo/IDN60801/IDN60801.94769.json